Palm Beach, FL

5:20 AM EST on March 06, 2015 (GMT -0500)
NOS_NWLON Lake Worth Pier, FL NWLON | Change Station
CLOSE
Current Station
Personal Weather Station
Location: Lake Worth, FL
Elevation: 0 ft
Nearby Weather Stations

Elev 0 ft 26.61 °N, 80.03 °W | Updated 32 minutes ago

Mostly Cloudy
Mostly Cloudy
--
Feels Like --
N
2.0
Wind Variable Wind from SSW
Gusts 5.0 mph

Today
High -- | Low -- °F
--% Chance of Precip.
Yesterday
High -- | Low -- °F
Precip. -- in
6:39 AM 6:24 PM
Full, 100% visible
Pressure 30.12 in
Visibility 10.0 miles
Clouds Scattered Clouds 2600 ft
Mostly Cloudy 4100 ft
Dew Point Not available.
Humidity Not available.
Rainfall in
Snow Depth Not available.
UV 0 out of 12
Pollen 10.90 out of 12
Air Quality Not available.
Flu Activity Not available.
METAR KPBI 060953Z 19004KT 10SM SCT026 BKN041 24/22 A3012 RMK AO2 SLP199 T02440217

More Conditions Fewer Conditions

Pressure 30.12 in
Visibility 10.0 miles
Clouds Scattered Clouds 2600 ft
Mostly Cloudy 4100 ft
Dew Point Not available.
Humidity Not available.
Rainfall in
Snow Depth Not available.
UV 0 out of 12
Pollen 10.90 out of 12
Air Quality Not available.
Flu Activity Not available.
METAR KPBI 060953Z 19004KT 10SM SCT026 BKN041 24/22 A3012 RMK AO2 SLP199 T02440217

More Conditions Fewer Conditions

Nowcast | as of 4:44 am EST on March 6, 2015

A line of light to moderate showers sitting over Palm Beach will continue to affect the Palm Beach area through the mid morning hours. Total accumulations are estimated by Doppler radar to be a trace up to a third of an inch of rain as of 4:30 am EST. With little movement with this line, additional accumulations of around one half to one inch through the morning hours are possible, with locally heavier amounts. The line should begin to move and possibly weaken later this morning as a weak cold front moves into the area and stalls. This cold front will bring additional showers from this afternoon through the weekend.

×

10-Day Weather Forecast

Almanac

Astronomy

Mar. 06, 2015 Rise Set
Actual Time
Civil Twilight
Nautical Twilight
Astronomical Twilight
Moon
Length of Visible Light
Length of Day
Tomorrow will be .
, % of the Moon is Illuminated

Today's Extremes

State Highs State Lows

Community

WunderPhotos

Upload Photos

1,803,216 photos uploaded!

WunderBlogs® & News

Nearby

Air Quality

  Air Quality AQ Index Pollutant
Not available.

Snow Depth

Station Depth Elevation

Earthquake Activity

City Distance Mag. Time & Date
Minimum magnitude displayed is 2.5.

Coastal Water Temperatures

Place Temperature

Nearby Weather Stations